Aérodrome :
LOGIN :

S'inscrire | Disclaimer

   EN    FR    IT 

 










Légende :    VFR   VFR Marginal   IFR   IFR Intensif   IFR Très Intensif
Visi : 
Plafond : 
>= 8 km
>= 3000ft
5 à 8 km
1000 à 3000 ft
1500m à 5 km
500 à 1000 ft
800 à 1500m
200 à 500 ft
< 800m
< 200 ft
Symboles :   Orages  Brouillard  Fortes neiges  Fortes précipitations  Vent > 20 kt
SIGMETs :   Divers  Orages  Givrage  Turbulence  Onde Orograph.  Cendres Volcan.







- Altitude de l'aérodrome : 407 ft


EGDM - MoD Boscombe Down Amesbury

DERNIER METAR :
  • 170850Z 18003KT 1800 DZ OVC002 13/13 Q1018 AMB BECMG 3000 -DZ BKN003 YLO2

METARs EXPIRÉS :
  • 170839Z 19004KT 1600 -DZ OVC001 13/13 Q1018 RED BECMG 3000 BKN002 AMB
  • 170759Z 18002KT 0600 FG OVC000 12/12 Q1018 RED BECMG 2000 BR BKN002 AMB
  • 170750Z 17002KT 0800 FG OVC001 12/12 Q1018 RED BECMG 2000 BR BKN002 AMB
  • 170650Z 15003KT 1200 BR OVC001 12/12 Q1017 RED BECMG 2000 BKN002 AMB

TAF AMD TAF EGDM
Valide du 17 à 08h jusqu'au 17 à 15h UTC


170808Z 1708/1715 VRB03KT 5000 BR BKN005
TEMPO 1708/1709 0600 FG OVC001
TEMPO 1709/1711 2000 -RADZ BKN002
BECMG 1711/1713 9999 NSW BKN010
TEMPO 1711/1715 4000 -RA
PROB40 1714/1715 FEW010 BKN030
Pas de NOTAMs connus pour ce terrain.



MET'MAP, la Météo Aéronautique d'un coup d'oeil ! - Copyright ORBIFLY Décembre 2007 - Disclaimer

ORBIFLY MET'MAP TEAM :

Programmation & Développement : Alexandra Zaïnal
Conception & Développement : Baudouin d'Aumeries
Co-Programmation & Développement : Marc-Olivier Méhu
Soutien technique & logistique : Manuel Goepfert

Contact : metmap@orbifly.com




SOURCES & CREDITS :

   NOAA